createdAt,value
2018-06-04T00:00:13.675Z,100795.66
2018-06-04T00:02:42.850Z,100795.00
2018-06-04T00:05:12.072Z,100804.28
2018-06-04T00:07:41.212Z,100801.00
2018-06-04T00:10:10.375Z,100793.86
2018-06-04T00:12:39.536Z,100800.09
2018-06-04T00:15:08.732Z,100804.21
2018-06-04T00:17:37.864Z,100804.48
2018-06-04T00:20:07.212Z,100803.34
2018-06-04T00:22:36.431Z,100796.53
2018-06-04T00:25:05.723Z,100796.70
2018-06-04T00:27:34.862Z,100789.94
2018-06-04T00:30:04.678Z,100791.19
2018-06-04T00:32:33.895Z,100793.19
2018-06-04T00:35:03.050Z,100793.52
2018-06-04T00:37:32.284Z,100796.95
2018-06-04T00:40:01.402Z,100795.56
2018-06-04T00:42:30.558Z,100796.08
2018-06-04T00:45:00.698Z,100788.41
2018-06-04T00:47:29.868Z,100783.53
2018-06-04T00:49:59.030Z,100785.08
2018-06-04T00:52:28.199Z,100790.97
2018-06-04T00:54:57.390Z,100783.34
2018-06-04T00:57:26.579Z,100783.86
2018-06-04T00:59:55.719Z,100784.75
2018-06-04T01:02:24.863Z,100780.73
2018-06-04T01:04:54.061Z,100778.36
2018-06-04T01:07:23.297Z,100784.73
2018-06-04T01:09:52.486Z,100775.87
2018-06-04T01:12:21.652Z,100774.86
2018-06-04T01:14:50.811Z,100785.02
2018-06-04T01:17:19.973Z,100781.41
2018-06-04T01:19:49.169Z,100772.07
2018-06-04T01:22:18.328Z,100778.03
2018-06-04T01:24:47.485Z,100773.90
2018-06-04T01:27:16.666Z,100777.48
2018-06-04T01:29:45.799Z,100777.83
2018-06-04T01:32:14.958Z,100770.75
2018-06-04T01:34:44.101Z,100772.41
2018-06-04T01:37:13.255Z,100764.16
2018-06-04T01:39:42.455Z,100754.14
2018-06-04T01:42:11.569Z,100757.24
2018-06-04T01:44:40.965Z,100761.15
2018-06-04T01:47:10.129Z,100752.44
2018-06-04T01:49:39.322Z,100752.96
2018-06-04T01:52:08.493Z,100754.52
2018-06-04T01:54:37.674Z,100755.00
2018-06-04T01:57:06.865Z,100755.94
2018-06-04T01:59:36.019Z,100751.50
2018-06-04T02:02:05.181Z,100755.75
2018-06-04T02:04:34.895Z,100750.30
2018-06-04T02:07:04.046Z,100748.38
2018-06-04T02:09:33.184Z,100752.96
2018-06-04T02:12:02.367Z,100750.55
2018-06-04T02:14:31.547Z,100748.80
2018-06-04T02:17:00.718Z,100754.02
2018-06-04T02:19:29.848Z,100751.29
2018-06-04T02:21:59.018Z,100750.66
2018-06-04T02:24:28.229Z,100746.78
2018-06-04T02:26:57.406Z,100746.14
2018-06-04T02:29:26.567Z,100747.06
2018-06-04T02:31:56.292Z,100750.48
2018-06-04T02:34:25.435Z,100748.34
2018-06-04T02:36:54.582Z,100742.13
2018-06-04T02:39:23.730Z,100742.08
2018-06-04T02:41:52.866Z,100746.73
2018-06-04T02:44:22.029Z,100749.55
2018-06-04T02:46:51.179Z,100743.53
2018-06-04T02:49:20.330Z,100742.14
2018-06-04T02:51:49.485Z,100736.46
2018-06-04T02:54:18.682Z,100735.34
2018-06-04T02:56:47.819Z,100738.54
2018-06-04T02:59:16.967Z,100740.91
2018-06-04T03:01:46.161Z,100740.34
2018-06-04T03:04:15.366Z,100735.47
2018-06-04T03:06:44.594Z,100735.98
2018-06-04T03:09:13.781Z,100729.88
2018-06-04T03:11:42.948Z,100728.64
2018-06-04T03:14:12.091Z,100727.77
2018-06-04T03:16:41.390Z,100726.66
2018-06-04T03:19:10.526Z,100723.81
2018-06-04T03:21:39.669Z,100721.73
2018-06-04T03:24:08.835Z,100719.66
2018-06-04T03:26:38.002Z,100716.27
2018-06-04T03:29:07.163Z,100721.54
2018-06-04T03:31:37.210Z,100718.66
2018-06-04T03:34:06.779Z,100710.61
2018-06-04T03:36:36.630Z,100716.18
2018-06-04T03:39:08.654Z,100715.55
2018-06-04T03:41:37.831Z,100706.39
2018-06-04T03:44:07.126Z,100711.59
2018-06-04T03:46:36.288Z,100705.39
2018-06-04T03:49:05.486Z,100705.23
2018-06-04T03:51:34.654Z,100696.55
2018-06-04T03:54:03.867Z,100697.41
2018-06-04T03:56:33.080Z,100694.31
2018-06-04T03:59:02.332Z,100692.58
2018-06-04T04:01:31.487Z,100690.77
2018-06-04T04:04:00.666Z,100690.10
2018-06-04T04:06:29.886Z,100690.36
2018-06-04T04:08:59.097Z,100690.84
2018-06-04T04:11:29.014Z,100688.77
2018-06-04T04:13:58.210Z,100688.54
2018-06-04T04:16:27.379Z,100691.12
2018-06-04T04:18:56.595Z,100686.81
2018-06-04T04:21:26.167Z,100691.33
2018-06-04T04:23:55.375Z,100695.11
2018-06-04T04:26:24.856Z,100690.66
2018-06-04T04:28:54.854Z,100692.02
2018-06-04T04:31:24.093Z,100690.33
2018-06-04T04:33:53.282Z,100692.16
2018-06-04T04:36:22.501Z,100691.53
2018-06-04T04:38:51.618Z,100688.22
2018-06-04T04:41:20.792Z,100691.08
2018-06-04T04:43:49.931Z,100689.95
2018-06-04T04:46:19.139Z,100691.83
2018-06-04T04:48:48.296Z,100696.16
2018-06-04T04:51:17.475Z,100691.00
2018-06-04T04:53:46.660Z,100687.36
2018-06-04T04:56:15.828Z,100689.23
2018-06-04T04:58:44.990Z,100680.80
2018-06-04T05:01:14.165Z,100692.66
2018-06-04T05:03:43.390Z,100688.32
2018-06-04T05:06:12.928Z,100689.73
2018-06-04T05:08:42.095Z,100687.77
2018-06-04T05:11:11.239Z,100687.16
2018-06-04T05:13:40.423Z,100682.64
2018-06-04T05:16:09.851Z,100684.80
2018-06-04T05:18:39.020Z,100684.47
2018-06-04T05:21:08.164Z,100677.72
2018-06-04T05:23:37.318Z,100676.04
2018-06-04T05:26:06.722Z,100678.96
2018-06-04T05:28:35.834Z,100674.59
2018-06-04T05:31:04.978Z,100677.42
2018-06-04T05:33:34.138Z,100670.77
2018-06-04T05:36:03.279Z,100671.59
2018-06-04T05:38:32.438Z,100669.08
2018-06-04T05:41:01.627Z,100672.38
2018-06-04T05:43:30.787Z,100670.83
2018-06-04T05:46:00.023Z,100671.67
2018-06-04T05:48:29.214Z,100665.27
2018-06-04T05:50:58.405Z,100661.23
2018-06-04T05:53:27.559Z,100663.84
2018-06-04T05:55:56.768Z,100659.83
2018-06-04T05:58:25.890Z,100660.39
2018-06-04T06:00:55.080Z,100655.09
2018-06-04T06:03:24.207Z,100657.74
2018-06-04T06:05:53.331Z,100658.22
2018-06-04T06:08:22.474Z,100654.09
2018-06-04T06:10:51.672Z,100658.19
2018-06-04T06:13:20.819Z,100659.83
2018-06-04T06:15:50.367Z,100664.91
2018-06-04T06:18:19.531Z,100660.75
2018-06-04T06:20:48.687Z,100661.20
2018-06-04T06:23:17.842Z,100656.70
2018-06-04T06:25:47.010Z,100655.58
2018-06-04T06:28:16.134Z,100651.88
2018-06-04T06:30:45.296Z,100647.17
2018-06-04T06:33:14.461Z,100646.95
2018-06-04T06:35:43.631Z,100650.40
2018-06-04T06:38:12.799Z,100648.11
2018-06-04T06:40:41.951Z,100638.86
2018-06-04T06:43:11.124Z,100646.55
2018-06-04T06:45:40.307Z,100648.08
2018-06-04T06:48:09.502Z,100643.52
2018-06-04T06:50:39.282Z,100639.10
2018-06-04T06:53:08.452Z,100640.48
2018-06-04T06:55:37.699Z,100643.19
2018-06-04T06:58:06.867Z,100635.08
2018-06-04T07:00:36.041Z,100644.25
2018-06-04T07:03:05.242Z,100630.68
2018-06-04T07:05:34.448Z,100633.43
2018-06-04T07:08:03.601Z,100632.42
2018-06-04T07:10:32.782Z,100625.16
2018-06-04T07:13:01.974Z,100621.06
2018-06-04T07:15:31.152Z,100624.20
2018-06-04T07:18:00.317Z,100622.92
2018-06-04T07:20:29.488Z,100620.96
2018-06-04T07:22:58.641Z,100624.37
2018-06-04T07:25:27.786Z,100622.14
2018-06-04T07:27:56.961Z,100614.97
2018-06-04T07:30:26.136Z,100619.11
2018-06-04T07:32:55.347Z,100616.13
2018-06-04T07:35:24.536Z,100614.38
2018-06-04T07:37:53.812Z,100609.14
2018-06-04T07:40:22.981Z,100616.25
2018-06-04T07:42:52.183Z,100614.47
2018-06-04T07:45:21.392Z,100620.80
2018-06-04T07:47:50.612Z,100613.56
2018-06-04T07:50:19.747Z,100610.17
2018-06-04T07:52:48.921Z,100616.44
2018-06-04T07:55:18.066Z,100606.80
2018-06-04T07:57:47.267Z,100604.45
2018-06-04T08:00:16.482Z,100602.63
2018-06-04T08:02:45.645Z,100601.64
2018-06-04T08:05:14.917Z,100604.78
2018-06-04T08:07:44.094Z,100593.47
2018-06-04T08:10:13.359Z,100603.95
2018-06-04T08:12:42.442Z,100598.09
2018-06-04T08:15:11.746Z,100595.56
2018-06-04T08:17:40.944Z,100592.02
2018-06-04T08:20:10.124Z,100589.29
2018-06-04T08:22:39.276Z,100588.15
2018-06-04T08:25:08.433Z,100588.17
2018-06-04T08:27:37.582Z,100591.06
2018-06-04T08:30:06.773Z,100589.00
2018-06-04T08:32:35.906Z,100586.37
2018-06-04T08:35:05.059Z,100584.29
2018-06-04T08:37:34.204Z,100590.69
2018-06-04T08:40:03.529Z,100585.39
2018-06-04T08:42:32.671Z,100583.48
2018-06-04T08:45:01.834Z,100596.70
2018-06-04T08:47:30.992Z,100579.19
2018-06-04T08:50:00.146Z,100583.09
2018-06-04T08:52:29.286Z,100580.92
2018-06-04T08:54:58.462Z,100577.47
2018-06-04T08:57:27.623Z,100580.84
2018-06-04T08:59:56.801Z,100580.25
2018-06-04T09:02:26.000Z,100575.83
2018-06-04T09:04:55.155Z,100572.62
2018-06-04T09:07:24.326Z,100575.89
2018-06-04T09:09:53.514Z,100573.29
2018-06-04T09:12:22.723Z,100569.66
2018-06-04T09:14:51.832Z,100567.86
2018-06-04T09:17:20.965Z,100565.98
2018-06-04T09:19:50.163Z,100570.95
2018-06-04T09:22:19.329Z,100570.03
2018-06-04T09:24:48.498Z,100559.52
2018-06-04T09:27:17.617Z,100550.75
2018-06-04T09:29:46.809Z,100559.10
2018-06-04T09:32:16.009Z,100557.46
2018-06-04T09:34:45.188Z,100559.11
2018-06-04T09:37:14.356Z,100569.16
2018-06-04T09:39:43.598Z,100556.12
2018-06-04T09:42:12.782Z,100556.06
2018-06-04T09:44:41.993Z,100549.07
2018-06-04T09:47:11.142Z,100549.07
2018-06-04T09:49:40.341Z,100543.44
2018-06-04T09:52:09.627Z,100548.95
2018-06-04T09:54:38.810Z,100540.31
2018-06-04T09:57:07.932Z,100543.73
2018-06-04T09:59:37.089Z,100541.79
2018-06-04T10:02:06.210Z,100535.45
2018-06-04T10:04:35.373Z,100544.48
2018-06-04T10:07:04.584Z,100532.53
2018-06-04T10:09:33.720Z,100536.77
2018-06-04T10:12:02.904Z,100539.34
2018-06-04T10:14:32.093Z,100533.89
2018-06-04T10:17:01.223Z,100532.24
2018-06-04T10:19:30.372Z,100526.23
2018-06-04T10:21:59.537Z,100524.37
2018-06-04T10:24:28.764Z,100529.11
2018-06-04T10:26:57.922Z,100519.88
2018-06-04T10:29:27.056Z,100527.58
2018-06-04T10:31:56.218Z,100530.26
2018-06-04T10:34:25.342Z,100526.37
2018-06-04T10:36:54.511Z,100518.87
2018-06-04T10:39:23.651Z,100518.48
2018-06-04T10:41:52.863Z,100518.77
2018-06-04T10:44:22.004Z,100513.21
2018-06-04T10:46:51.187Z,100506.70
2018-06-04T10:49:20.382Z,100510.00
2018-06-04T10:51:49.534Z,100511.75
2018-06-04T10:54:18.686Z,100504.57
2018-06-04T10:56:47.941Z,100503.16
2018-06-04T10:59:17.130Z,100504.27
2018-06-04T11:01:46.245Z,100494.66
